Time;durP1;ratioP1;P1;durP2;ratioP2;P2;SDS_P1;SDS_P2;PMS_P1;PMS_P2;Temp;Humidity;BMP_temperature;BMP_pressure;BME280_temperature;BME280_humidity;BME280_pressure;Samples;Min_cycle;Max_cycle;Signal;HPM_P1;HPM_P2
2022/08/23 00:01:00;;;;;;;;;1.00;1.00;;;;;;;;5093169;27;45412;-74
2022/08/23 00:03:25;;;;;;;;;1.00;1.00;;;;;;;;5094680;27;45438;-74
2022/08/23 00:05:50;;;;;;;;;2.00;2.00;;;;;;;;5086896;27;45509;-74
2022/08/23 00:08:15;;;;;;;;;1.67;1.67;;;;;;;;5079667;27;45542;-75
2022/08/23 00:10:40;;;;;;;;;1.33;1.00;;;;;;;;5091314;27;45415;-74
2022/08/23 00:13:05;;;;;;;;;1.33;1.33;;;;;;;;5097592;27;45501;-74
2022/08/23 00:15:32;;;;;;;;;2.33;2.33;;;;;;;;5064463;28;45374;-73
2022/08/23 00:17:59;;;;;;;;;2.00;2.00;;;;;;;;5083974;27;45401;-74
2022/08/23 00:20:25;;;;;;;;;1.67;1.33;;;;;;;;5085250;27;46332;-73
2022/08/23 00:22:50;;;;;;;;;2.00;2.00;;;;;;;;5086709;27;45392;-74
2022/08/23 00:25:15;;;;;;;;;1.00;1.00;;;;;;;;5082662;27;45514;-75
2022/08/23 00:27:41;;;;;;;;;2.67;2.67;;;;;;;;5092852;27;45475;-74
2022/08/23 00:30:07;;;;;;;;;1.00;1.00;;;;;;;;5085879;27;45388;-73
2022/08/23 00:32:34;;;;;;;;;0.00;0.00;;;;;;;;5088710;27;45326;-73
2022/08/23 00:35:00;;;;;;;;;1.00;1.00;;;;;;;;5083399;27;45362;-74
2022/08/23 00:37:26;;;;;;;;;1.00;1.00;;;;;;;;5089980;27;45361;-75
2022/08/23 00:39:51;;;;;;;;;1.67;1.67;;;;;;;;5078621;27;47223;-76
2022/08/23 00:47:51;;;;;;;;;1.00;1.00;;;;;;;;5097070;27;45401;-75
2022/08/23 00:50:28;;;;;;;;;1.00;1.00;;;;;;;;5083121;27;46303;-74
2022/08/23 00:52:54;;;;;;;;;1.00;1.00;;;;;;;;5097003;27;45293;-74
2022/08/23 00:55:20;;;;;;;;;1.00;1.00;;;;;;;;5087527;27;45301;-73
2022/08/23 00:57:45;;;;;;;;;1.00;1.00;;;;;;;;5086365;27;45289;-74
2022/08/23 01:00:10;;;;;;;;;2.00;2.00;;;;;;;;5094918;27;45356;-75
2022/08/23 01:02:36;;;;;;;;;1.00;1.00;;;;;;;;5096925;27;45459;-75
2022/08/23 01:05:03;;;;;;;;;1.00;1.00;;;;;;;;5093786;27;45549;-74
2022/08/23 01:07:33;;;;;;;;;2.00;1.00;;;;;;;;5097299;27;45340;-75
2022/08/23 01:10:01;;;;;;;;;2.00;2.00;;;;;;;;5096767;27;46474;-75
2022/08/23 01:12:31;;;;;;;;;0.00;0.00;;;;;;;;5084190;27;45458;-75
2022/08/23 01:14:59;;;;;;;;;1.00;1.00;;;;;;;;5086278;27;45289;-74
2022/08/23 01:17:28;;;;;;;;;1.67;1.00;;;;;;;;5096820;27;45339;-75
2022/08/23 01:20:01;;;;;;;;;1.33;1.33;;;;;;;;5096809;27;46186;-74
2022/08/23 01:22:33;;;;;;;;;2.00;0.33;;;;;;;;5091112;27;45442;-74
2022/08/23 01:24:59;;;;;;;;;1.00;1.00;;;;;;;;5084680;27;45359;-74
2022/08/23 01:27:26;;;;;;;;;1.00;1.00;;;;;;;;5072147;27;45397;-75
2022/08/23 01:29:52;;;;;;;;;1.00;1.00;;;;;;;;5091746;27;46186;-74
2022/08/23 01:32:17;;;;;;;;;1.33;1.33;;;;;;;;5085415;27;45434;-74
2022/08/23 01:34:42;;;;;;;;;2.00;1.00;;;;;;;;5094960;27;45334;-75
2022/08/23 01:37:08;;;;;;;;;1.33;1.33;;;;;;;;5086482;27;45367;-74
2022/08/23 01:39:34;;;;;;;;;1.00;1.00;;;;;;;;5088658;27;46191;-74
2022/08/23 01:41:59;;;;;;;;;0.33;0.33;;;;;;;;5075540;28;45467;-74
2022/08/23 01:44:25;;;;;;;;;1.00;1.00;;;;;;;;5078552;27;45898;-74
2022/08/23 01:46:51;;;;;;;;;1.33;1.33;;;;;;;;5096547;27;45367;-73
2022/08/23 01:49:16;;;;;;;;;1.00;1.00;;;;;;;;5076551;27;45860;-74
2022/08/23 01:51:41;;;;;;;;;0.33;0.33;;;;;;;;5092801;27;45405;-74
2022/08/23 01:54:06;;;;;;;;;1.67;1.67;;;;;;;;5086307;27;45425;-73
2022/08/23 01:56:32;;;;;;;;;3.00;0.33;;;;;;;;5095907;27;45338;-74
2022/08/23 01:58:58;;;;;;;;;1.00;1.00;;;;;;;;5086702;27;46331;-74
2022/08/23 02:01:23;;;;;;;;;1.00;1.00;;;;;;;;5086013;27;46034;-74
2022/08/23 02:03:48;;;;;;;;;0.33;0.33;;;;;;;;5096302;27;45299;-74
2022/08/23 02:06:14;;;;;;;;;1.00;1.00;;;;;;;;5089268;27;45311;-74
2022/08/23 02:11:24;;;;;;;;;1.33;1.33;;;;;;;;5069778;27;45376;-74
2022/08/23 02:13:50;;;;;;;;;1.33;1.33;;;;;;;;5094198;27;45406;-74
2022/08/23 02:16:23;;;;;;;;;0.00;0.00;;;;;;;;5087148;27;45319;-74
2022/08/23 02:18:49;;;;;;;;;1.00;1.00;;;;;;;;5093805;27;46305;-74
2022/08/23 02:21:15;;;;;;;;;1.00;1.00;;;;;;;;5093988;27;45234;-73
2022/08/23 02:23:40;;;;;;;;;1.00;1.00;;;;;;;;5099251;27;45299;-74
2022/08/23 02:26:05;;;;;;;;;0.33;0.33;;;;;;;;5086214;27;45469;-74
2022/08/23 02:28:31;;;;;;;;;0.00;0.00;;;;;;;;5094234;27;46957;-74
2022/08/23 02:30:56;;;;;;;;;1.00;1.00;;;;;;;;5098364;27;45401;-74
2022/08/23 02:33:21;;;;;;;;;2.00;1.00;;;;;;;;5092484;27;45394;-74
2022/08/23 02:35:46;;;;;;;;;1.00;1.00;;;;;;;;5085410;27;45472;-73
2022/08/23 02:38:12;;;;;;;;;1.33;1.00;;;;;;;;5098053;27;46113;-74
2022/08/23 02:40:38;;;;;;;;;1.00;1.00;;;;;;;;5091862;27;45351;-74
2022/08/23 02:43:05;;;;;;;;;2.00;1.00;;;;;;;;5096282;27;45393;-74
2022/08/23 02:45:31;;;;;;;;;1.00;1.00;;;;;;;;5093914;27;45418;-74
2022/08/23 02:47:56;;;;;;;;;1.00;0.33;;;;;;;;5084897;27;46146;-73
2022/08/23 02:50:21;;;;;;;;;1.00;1.00;;;;;;;;5099013;27;45434;-74
2022/08/23 02:52:47;;;;;;;;;1.00;1.00;;;;;;;;5093137;27;45346;-75
2022/08/23 02:55:12;;;;;;;;;1.00;1.00;;;;;;;;5092580;27;45476;-73
2022/08/23 02:57:40;;;;;;;;;3.00;0.00;;;;;;;;5078808;27;46087;-74
2022/08/23 03:00:08;;;;;;;;;1.33;0.00;;;;;;;;5099164;27;45312;-74
2022/08/23 03:02:34;;;;;;;;;0.00;0.00;;;;;;;;5098430;27;45462;-74
2022/08/23 03:04:59;;;;;;;;;0.33;0.33;;;;;;;;5097628;27;45363;-74
2022/08/23 03:07:24;;;;;;;;;2.00;2.00;;;;;;;;5097262;27;46184;-74
2022/08/23 03:09:49;;;;;;;;;1.00;1.00;;;;;;;;5097863;27;45476;-73
2022/08/23 03:12:15;;;;;;;;;0.33;0.33;;;;;;;;5085705;27;45326;-74
2022/08/23 03:14:40;;;;;;;;;1.33;1.33;;;;;;;;5092288;27;45413;-74
2022/08/23 03:17:06;;;;;;;;;1.67;1.00;;;;;;;;5090602;27;45415;-74
2022/08/23 03:19:32;;;;;;;;;1.00;1.00;;;;;;;;5092388;27;45292;-74
2022/08/23 03:21:57;;;;;;;;;1.00;1.00;;;;;;;;5088252;27;45699;-74
2022/08/23 03:24:22;;;;;;;;;1.00;1.00;;;;;;;;5095791;27;45845;-74
2022/08/23 03:26:47;;;;;;;;;0.67;0.67;;;;;;;;5086591;27;46058;-74
2022/08/23 03:29:13;;;;;;;;;1.00;1.00;;;;;;;;5097119;27;45332;-73
2022/08/23 03:31:38;;;;;;;;;0.00;0.00;;;;;;;;5090111;27;45311;-73
2022/08/23 03:34:04;;;;;;;;;0.33;0.33;;;;;;;;5090409;27;45272;-73
2022/08/23 03:36:29;;;;;;;;;1.00;1.00;;;;;;;;5088512;27;46882;-74
2022/08/23 03:38:55;;;;;;;;;1.00;1.00;;;;;;;;5097231;27;45216;-73
2022/08/23 03:41:20;;;;;;;;;1.00;1.00;;;;;;;;5096984;27;45224;-73
2022/08/23 03:43:45;;;;;;;;;1.00;1.00;;;;;;;;5097446;27;45367;-73
2022/08/23 03:46:21;;;;;;;;;1.00;1.00;;;;;;;;5093461;27;46209;-74
2022/08/23 03:48:49;;;;;;;;;3.00;1.00;;;;;;;;5088713;27;45339;-73
2022/08/23 03:51:14;;;;;;;;;0.00;0.00;;;;;;;;5091131;27;45427;-74
2022/08/23 03:53:39;;;;;;;;;1.00;1.00;;;;;;;;5090383;27;45330;-74
2022/08/23 03:56:04;;;;;;;;;0.00;0.00;;;;;;;;5089123;27;45361;-74
2022/08/23 03:58:30;;;;;;;;;0.33;0.33;;;;;;;;5096709;27;45362;-73
2022/08/23 04:00:56;;;;;;;;;2.00;2.00;;;;;;;;5096924;27;45403;-74
2022/08/23 04:03:21;;;;;;;;;0.67;0.67;;;;;;;;5068061;27;1144827;-73
2022/08/23 04:05:47;;;;;;;;;1.00;1.00;;;;;;;;5114033;27;47127;-74
2022/08/23 04:08:12;;;;;;;;;1.00;1.00;;;;;;;;5118477;27;45302;-74
2022/08/23 04:10:38;;;;;;;;;1.00;1.00;;;;;;;;5118594;27;45361;-73
2022/08/23 04:13:03;;;;;;;;;1.00;1.00;;;;;;;;5106278;27;45396;-74
2022/08/23 04:15:29;;;;;;;;;1.67;1.67;;;;;;;;5102978;27;46275;-74
2022/08/23 04:17:57;;;;;;;;;2.00;2.00;;;;;;;;5104060;27;45433;-73
2022/08/23 04:20:22;;;;;;;;;1.00;1.00;;;;;;;;5115315;27;45481;-74
2022/08/23 04:22:50;;;;;;;;;2.00;0.00;;;;;;;;5116265;27;45562;-74
2022/08/23 04:25:16;;;;;;;;;1.00;1.00;;;;;;;;5109557;27;46947;-74
2022/08/23 04:27:41;;;;;;;;;0.33;0.33;;;;;;;;5114973;27;45352;-73
2022/08/23 04:30:06;;;;;;;;;1.33;0.33;;;;;;;;5117388;27;45456;-74
2022/08/23 04:32:31;;;;;;;;;0.00;0.00;;;;;;;;5118036;27;45455;-74
2022/08/23 04:34:57;;;;;;;;;0.00;0.00;;;;;;;;5101119;27;46183;-74
2022/08/23 04:37:22;;;;;;;;;0.33;0.33;;;;;;;;5109981;27;45353;-73
2022/08/23 04:42:31;;;;;;;;;1.00;1.00;;;;;;;;5118112;27;45326;-73
2022/08/23 04:44:57;;;;;;;;;0.33;0.33;;;;;;;;5114752;27;45571;-74
2022/08/23 04:47:22;;;;;;;;;0.00;0.00;;;;;;;;5118115;27;45411;-73
2022/08/23 04:49:48;;;;;;;;;1.00;1.00;;;;;;;;5105640;27;45432;-74
2022/08/23 04:52:13;;;;;;;;;0.67;0.67;;;;;;;;5116314;27;45386;-74
2022/08/23 04:54:38;;;;;;;;;0.00;0.00;;;;;;;;5112019;27;47225;-74
2022/08/23 04:57:04;;;;;;;;;1.00;1.00;;;;;;;;5117235;27;45339;-74
2022/08/23 04:59:29;;;;;;;;;0.33;0.33;;;;;;;;5104367;27;45225;-73
2022/08/23 05:01:54;;;;;;;;;0.33;0.33;;;;;;;;5106598;27;45503;-73
2022/08/23 05:04:19;;;;;;;;;1.00;1.00;;;;;;;;5096615;27;46413;-73
2022/08/23 05:06:45;;;;;;;;;1.00;1.00;;;;;;;;5096626;27;45308;-73
2022/08/23 05:09:10;;;;;;;;;0.33;0.33;;;;;;;;5096680;27;45426;-74
2022/08/23 05:11:36;;;;;;;;;1.00;1.00;;;;;;;;5068189;28;45514;-73
2022/08/23 05:14:01;;;;;;;;;1.00;1.00;;;;;;;;5086203;27;45356;-73
2022/08/23 05:16:26;;;;;;;;;1.00;1.00;;;;;;;;5084672;27;45443;-74
2022/08/23 05:18:51;;;;;;;;;0.67;0.67;;;;;;;;5096668;27;45499;-73
2022/08/23 05:21:18;;;;;;;;;1.00;1.00;;;;;;;;5092788;27;45416;-74
2022/08/23 05:23:43;;;;;;;;;0.67;0.67;;;;;;;;5096563;27;46564;-73
2022/08/23 05:26:10;;;;;;;;;0.00;0.00;;;;;;;;5079665;27;45471;-74
2022/08/23 05:28:38;;;;;;;;;1.00;1.00;;;;;;;;5086718;27;45462;-74
2022/08/23 05:31:14;;;;;;;;;0.00;0.00;;;;;;;;5096209;27;45472;-74
2022/08/23 05:33:40;;;;;;;;;1.00;1.00;;;;;;;;5085612;27;47600;-73
2022/08/23 05:36:06;;;;;;;;;0.33;0.33;;;;;;;;5081645;27;45421;-73
2022/08/23 05:38:32;;;;;;;;;1.00;0.00;;;;;;;;5096675;27;45268;-74
2022/08/23 05:41:00;;;;;;;;;1.00;1.00;;;;;;;;5088160;27;45219;-76
2022/08/23 05:43:25;;;;;;;;;0.00;0.00;;;;;;;;5076082;27;47671;-75
2022/08/23 05:46:05;;;;;;;;;0.00;0.00;;;;;;;;5070947;27;45639;-75
2022/08/23 05:48:32;;;;;;;;;1.00;1.00;;;;;;;;5070080;27;45344;-79
2022/08/23 05:51:06;;;;;;;;;1.00;1.00;;;;;;;;5070705;27;45403;-73
2022/08/23 05:53:31;;;;;;;;;0.00;0.00;;;;;;;;5071505;27;47325;-74
2022/08/23 05:55:56;;;;;;;;;1.00;1.00;;;;;;;;5068589;27;45372;-74
2022/08/23 05:58:21;;;;;;;;;0.33;0.33;;;;;;;;5075027;27;45244;-73
2022/08/23 06:00:46;;;;;;;;;0.00;0.00;;;;;;;;5074059;27;45450;-73
2022/08/23 06:03:12;;;;;;;;;1.00;1.00;;;;;;;;5089825;27;47088;-73
2022/08/23 06:05:39;;;;;;;;;1.00;1.00;;;;;;;;5098568;27;45363;-73
2022/08/23 06:08:04;;;;;;;;;1.00;1.00;;;;;;;;5101076;27;45492;-73
2022/08/23 06:10:31;;;;;;;;;0.00;0.00;;;;;;;;5098042;27;45357;-73
2022/08/23 06:12:56;;;;;;;;;1.33;1.00;;;;;;;;5096499;27;46351;-73
2022/08/23 06:15:21;;;;;;;;;1.00;0.00;;;;;;;;5095517;27;45397;-73
2022/08/23 06:17:46;;;;;;;;;0.00;0.00;;;;;;;;5096042;27;45370;-74
2022/08/23 06:20:14;;;;;;;;;1.00;1.00;;;;;;;;5095905;27;46100;-73
2022/08/23 06:22:40;;;;;;;;;0.00;0.00;;;;;;;;5095587;27;47054;-75
2022/08/23 06:25:05;;;;;;;;;1.00;1.00;;;;;;;;5095661;27;45359;-74
2022/08/23 06:27:31;;;;;;;;;1.00;1.00;;;;;;;;5095749;27;45285;-74
2022/08/23 06:29:56;;;;;;;;;0.00;0.00;;;;;;;;5095446;27;45292;-75
2022/08/23 06:32:22;;;;;;;;;1.00;1.00;;;;;;;;5095696;27;46283;-73
2022/08/23 06:34:47;;;;;;;;;1.00;1.00;;;;;;;;5095491;27;45553;-73
2022/08/23 06:37:13;;;;;;;;;2.00;0.00;;;;;;;;5095796;27;45570;-73
2022/08/23 06:39:38;;;;;;;;;1.67;1.00;;;;;;;;5095663;27;45396;-74
2022/08/23 06:42:08;;;;;;;;;1.67;1.00;;;;;;;;5095530;27;45487;-73
2022/08/23 06:44:34;;;;;;;;;0.00;0.00;;;;;;;;5094915;27;45591;-74
2022/08/23 06:46:59;;;;;;;;;0.33;0.33;;;;;;;;5095655;27;45213;-74
2022/08/23 06:49:24;;;;;;;;;0.67;0.67;;;;;;;;5095324;27;45540;-74
2022/08/23 06:51:51;;;;;;;;;0.33;0.33;;;;;;;;5093948;27;46128;-73
2022/08/23 06:54:19;;;;;;;;;1.00;1.00;;;;;;;;5097364;27;45459;-73
2022/08/23 06:56:44;;;;;;;;;0.67;0.67;;;;;;;;5098451;27;45461;-73
2022/08/23 06:59:11;;;;;;;;;1.00;1.00;;;;;;;;5098717;27;45426;-73
2022/08/23 07:01:41;;;;;;;;;3.33;1.00;;;;;;;;5096780;27;47173;-74
2022/08/23 07:04:07;;;;;;;;;0.00;0.00;;;;;;;;5078348;27;45351;-74
2022/08/23 07:06:33;;;;;;;;;0.00;0.00;;;;;;;;5078413;27;45364;-74
2022/08/23 07:08:58;;;;;;;;;1.00;1.00;;;;;;;;5095270;27;45340;-73
2022/08/23 07:11:24;;;;;;;;;1.00;1.00;;;;;;;;5092550;27;45432;-74
2022/08/23 07:13:51;;;;;;;;;1.00;1.00;;;;;;;;5074508;27;45847;-73
2022/08/23 07:16:17;;;;;;;;;1.00;1.00;;;;;;;;5086805;27;45284;-73
2022/08/23 07:18:42;;;;;;;;;1.00;1.00;;;;;;;;5098761;27;45453;-74
2022/08/23 07:21:07;;;;;;;;;0.00;0.00;;;;;;;;5095043;27;45560;-73
2022/08/23 07:23:33;;;;;;;;;1.00;1.00;;;;;;;;5098798;27;45360;-73
2022/08/23 07:25:59;;;;;;;;;0.00;0.00;;;;;;;;5099078;27;45327;-74
2022/08/23 07:28:25;;;;;;;;;1.00;1.00;;;;;;;;5098398;27;45364;-73
2022/08/23 07:30:50;;;;;;;;;0.67;0.67;;;;;;;;5097992;27;46191;-73
2022/08/23 07:33:15;;;;;;;;;2.00;0.67;;;;;;;;5091894;27;45328;-73
2022/08/23 07:35:50;;;;;;;;;0.00;0.00;;;;;;;;5084553;27;45390;-73
2022/08/23 07:38:16;;;;;;;;;1.00;1.00;;;;;;;;5092411;27;46763;-74
2022/08/23 07:40:41;;;;;;;;;1.33;1.33;;;;;;;;5089782;27;45414;-73
2022/08/23 07:43:06;;;;;;;;;2.33;2.00;;;;;;;;5097311;27;45330;-74
2022/08/23 07:45:32;;;;;;;;;0.33;0.33;;;;;;;;5077534;27;45220;-74
2022/08/23 07:47:59;;;;;;;;;1.00;1.00;;;;;;;;5092127;27;45473;-74
2022/08/23 07:50:24;;;;;;;;;1.00;1.00;;;;;;;;5084751;27;46088;-74
2022/08/23 07:52:49;;;;;;;;;0.67;0.67;;;;;;;;5098048;27;45346;-73
2022/08/23 07:55:14;;;;;;;;;1.33;0.33;;;;;;;;5089841;27;45445;-73
2022/08/23 07:57:40;;;;;;;;;1.00;1.00;;;;;;;;5094053;27;45306;-74
2022/08/23 08:00:05;;;;;;;;;1.00;1.00;;;;;;;;5094256;27;45966;-74
2022/08/23 08:02:30;;;;;;;;;0.00;0.00;;;;;;;;5097911;27;45274;-73
2022/08/23 08:04:56;;;;;;;;;1.00;1.00;;;;;;;;5097025;27;45274;-73
2022/08/23 08:07:21;;;;;;;;;1.00;1.00;;;;;;;;5084173;27;45367;-74
2022/08/23 08:09:46;;;;;;;;;0.00;0.00;;;;;;;;5094662;27;45371;-74
2022/08/23 08:12:11;;;;;;;;;0.00;0.00;;;;;;;;5084981;27;45463;-74
2022/08/23 08:14:37;;;;;;;;;0.00;0.00;;;;;;;;5090912;27;45330;-73
2022/08/23 08:17:02;;;;;;;;;0.00;0.00;;;;;;;;5077028;28;45298;-74
2022/08/23 08:19:27;;;;;;;;;2.00;0.00;;;;;;;;5089000;27;47085;-73
2022/08/23 08:21:52;;;;;;;;;1.00;0.00;;;;;;;;5095289;27;45438;-73
2022/08/23 08:24:18;;;;;;;;;1.00;1.00;;;;;;;;5097982;27;45600;-73
2022/08/23 08:26:44;;;;;;;;;0.00;0.00;;;;;;;;5097640;27;45435;-73
2022/08/23 08:29:10;;;;;;;;;0.00;0.00;;;;;;;;5097532;27;46829;-74
2022/08/23 08:31:37;;;;;;;;;1.00;1.00;;;;;;;;5083964;27;45335;-73
2022/08/23 08:34:02;;;;;;;;;0.00;0.00;;;;;;;;5097733;27;45382;-73
2022/08/23 08:36:35;;;;;;;;;0.00;0.00;;;;;;;;5088201;27;45420;-73
2022/08/23 08:39:04;;;;;;;;;1.33;0.33;;;;;;;;5097564;27;46198;-74
2022/08/23 08:41:32;;;;;;;;;0.33;0.33;;;;;;;;5096910;27;45426;-73
2022/08/23 08:44:06;;;;;;;;;0.67;0.67;;;;;;;;5079144;27;45449;-73
2022/08/23 08:46:38;;;;;;;;;0.00;0.00;;;;;;;;5094810;27;45404;-73
2022/08/23 08:49:04;;;;;;;;;0.33;0.00;;;;;;;;5090584;27;46546;-73
2022/08/23 08:51:32;;;;;;;;;0.00;0.00;;;;;;;;5093589;27;45462;-73
2022/08/23 08:53:58;;;;;;;;;0.67;0.67;;;;;;;;5088300;27;45252;-73
2022/08/23 08:56:31;;;;;;;;;0.67;0.67;;;;;;;;5076757;27;45360;-73
2022/08/23 08:59:00;;;;;;;;;0.00;0.00;;;;;;;;5090646;27;45441;-74
2022/08/23 09:01:25;;;;;;;;;0.00;0.00;;;;;;;;5088237;27;45312;-73
2022/08/23 09:03:51;;;;;;;;;0.00;0.00;;;;;;;;5097169;27;45376;-74
2022/08/23 09:06:28;;;;;;;;;0.00;0.00;;;;;;;;5089446;27;45563;-73
2022/08/23 09:09:00;;;;;;;;;0.67;0.67;;;;;;;;5096764;27;46846;-74
2022/08/23 09:11:29;;;;;;;;;0.00;0.00;;;;;;;;5089720;27;45162;-74
2022/08/23 09:13:58;;;;;;;;;1.00;1.00;;;;;;;;5091915;27;45338;-73
2022/08/23 09:16:42;;;;;;;;;1.33;1.00;;;;;;;;5084070;27;45294;-73
2022/08/23 09:19:07;;;;;;;;;1.00;1.00;;;;;;;;5096305;27;45386;-73
2022/08/23 09:21:40;;;;;;;;;0.00;0.00;;;;;;;;5094145;27;45336;-73
2022/08/23 09:24:05;;;;;;;;;1.00;0.33;;;;;;;;5096550;27;45327;-73
2022/08/23 09:26:30;;;;;;;;;1.00;1.00;;;;;;;;5086321;27;45363;-73
2022/08/23 09:29:00;;;;;;;;;0.00;0.00;;;;;;;;5096512;27;46516;-73
2022/08/23 09:31:40;;;;;;;;;0.00;0.00;;;;;;;;5095612;27;45399;-73
2022/08/23 09:34:06;;;;;;;;;0.00;0.00;;;;;;;;5096615;27;45563;-73
2022/08/23 09:36:32;;;;;;;;;1.00;1.00;;;;;;;;5085381;27;45591;-73
2022/08/23 09:38:58;;;;;;;;;0.00;0.00;;;;;;;;5084502;27;46235;-73
2022/08/23 09:41:35;;;;;;;;;0.00;0.00;;;;;;;;5093478;27;45424;-73
2022/08/23 09:44:01;;;;;;;;;1.00;1.00;;;;;;;;5096680;27;45345;-73
2022/08/23 09:46:29;;;;;;;;;0.00;0.00;;;;;;;;5093494;27;45369;-73
2022/08/23 09:48:57;;;;;;;;;2.00;0.00;;;;;;;;5096285;27;46429;-73
2022/08/23 09:51:36;;;;;;;;;0.00;0.00;;;;;;;;5092615;27;45411;-73
2022/08/23 09:54:18;;;;;;;;;0.00;0.00;;;;;;;;5096193;27;45480;-74
2022/08/23 09:56:49;;;;;;;;;0.00;0.00;;;;;;;;5085951;27;45411;-73
2022/08/23 09:59:26;;;;;;;;;1.00;0.00;;;;;;;;5086094;27;45775;-73
2022/08/23 10:01:55;;;;;;;;;0.33;0.33;;;;;;;;5093684;27;45413;-73
2022/08/23 10:04:39;;;;;;;;;0.00;0.00;;;;;;;;5092972;27;45472;-74
2022/08/23 10:07:21;;;;;;;;;0.33;0.33;;;;;;;;5094845;27;45332;-73
2022/08/23 10:09:47;;;;;;;;;0.00;0.00;;;;;;;;5096043;27;45374;-73
2022/08/23 10:12:12;;;;;;;;;1.33;1.00;;;;;;;;5083870;27;45443;-73
2022/08/23 10:14:37;;;;;;;;;0.00;0.00;;;;;;;;5086005;27;45328;-73
2022/08/23 10:17:03;;;;;;;;;0.00;0.00;;;;;;;;5084397;27;45434;-73
2022/08/23 10:19:51;;;;;;;;;0.00;0.00;;;;;;;;5089434;27;46045;-73
2022/08/23 10:22:21;;;;;;;;;0.00;0.00;;;;;;;;5089356;27;45351;-73
2022/08/23 10:24:54;;;;;;;;;0.00;0.00;;;;;;;;5070619;27;45305;-73
2022/08/23 10:30:14;;;;;;;;;3.00;1.33;;;;;;;;5080514;27;45876;-73
2022/08/23 10:32:47;;;;;;;;;0.00;0.00;;;;;;;;5084803;27;45340;-73
2022/08/23 10:35:22;;;;;;;;;0.00;0.00;;;;;;;;5096974;27;45518;-73
2022/08/23 10:38:07;;;;;;;;;0.00;0.00;;;;;;;;5094620;27;45333;-72
2022/08/23 10:40:38;;;;;;;;;0.00;0.00;;;;;;;;5098687;27;46220;-73
2022/08/23 10:43:09;;;;;;;;;1.00;1.00;;;;;;;;5098992;27;45389;-73
2022/08/23 10:45:35;;;;;;;;;0.00;0.00;;;;;;;;5096405;27;45454;-73
2022/08/23 10:48:00;;;;;;;;;0.00;0.00;;;;;;;;5099190;27;45377;-72
2022/08/23 10:50:27;;;;;;;;;0.00;0.00;;;;;;;;5099202;27;45435;-74
2022/08/23 10:52:55;;;;;;;;;0.00;0.00;;;;;;;;5098694;27;45358;-73
2022/08/23 10:55:33;;;;;;;;;0.00;0.00;;;;;;;;5085523;27;45411;-73
2022/08/23 10:58:00;;;;;;;;;0.00;0.00;;;;;;;;5092960;27;45481;-73
2022/08/23 11:00:26;;;;;;;;;0.00;0.00;;;;;;;;5096422;27;46308;-73
2022/08/23 11:03:12;;;;;;;;;0.00;0.00;;;;;;;;5098829;27;45362;-73
2022/08/23 11:05:37;;;;;;;;;1.00;1.00;;;;;;;;5033817;28;45422;-73
2022/08/23 11:08:05;;;;;;;;;0.00;0.00;;;;;;;;5035651;28;45415;-73
2022/08/23 11:10:41;;;;;;;;;0.00;0.00;;;;;;;;5021463;28;46100;-73
2022/08/23 11:13:12;;;;;;;;;0.00;0.00;;;;;;;;5024165;28;45516;-73
2022/08/23 11:15:42;;;;;;;;;2.00;0.67;;;;;;;;5023994;28;45448;-73
2022/08/23 11:18:10;;;;;;;;;0.00;0.00;;;;;;;;5035605;28;45499;-73
2022/08/23 11:20:58;;;;;;;;;0.00;0.00;;;;;;;;5022316;28;45527;-73
2022/08/23 11:23:42;;;;;;;;;0.00;0.00;;;;;;;;5013669;28;45488;-73
2022/08/23 11:26:09;;;;;;;;;0.00;0.00;;;;;;;;5033135;28;45518;-73
2022/08/23 11:28:42;;;;;;;;;0.67;0.67;;;;;;;;5029581;28;45422;-73
2022/08/23 11:31:07;;;;;;;;;1.00;0.00;;;;;;;;5024991;28;48290;-74
2022/08/23 11:33:34;;;;;;;;;0.00;0.00;;;;;;;;5035449;28;45503;-73
2022/08/23 11:36:09;;;;;;;;;0.00;0.00;;;;;;;;5027194;28;45465;-73
2022/08/23 11:38:54;;;;;;;;;0.00;0.00;;;;;;;;5035235;28;45443;-73
2022/08/23 11:41:27;;;;;;;;;0.00;0.00;;;;;;;;5024158;28;45510;-73
2022/08/23 11:43:55;;;;;;;;;0.00;0.00;;;;;;;;5096281;27;45347;-73
2022/08/23 11:46:24;;;;;;;;;0.00;0.00;;;;;;;;5096081;27;45471;-74
2022/08/23 11:49:04;;;;;;;;;0.00;0.00;;;;;;;;5088491;27;45432;-73
2022/08/23 11:51:48;;;;;;;;;1.33;1.00;;;;;;;;5093699;27;45275;-73
2022/08/23 11:54:25;;;;;;;;;0.00;0.00;;;;;;;;5098104;27;45445;-73
2022/08/23 11:57:09;;;;;;;;;0.00;0.00;;;;;;;;5086444;27;45284;-73
2022/08/23 11:59:49;;;;;;;;;0.00;0.00;;;;;;;;5079526;27;45454;-73
2022/08/23 12:02:33;;;;;;;;;0.00;0.00;;;;;;;;5092455;27;45493;-73
2022/08/23 12:05:00;;;;;;;;;0.00;0.00;;;;;;;;5097430;27;45822;-73
2022/08/23 12:07:43;;;;;;;;;0.00;0.00;;;;;;;;5098222;27;45348;-73
2022/08/23 12:10:09;;;;;;;;;0.00;0.00;;;;;;;;5097675;27;45447;-74
2022/08/23 12:12:34;;;;;;;;;0.00;0.00;;;;;;;;5085416;27;47370;-73
2022/08/23 12:15:01;;;;;;;;;0.00;0.00;;;;;;;;5087358;27;45603;-73
2022/08/23 12:17:27;;;;;;;;;0.00;0.00;;;;;;;;5093836;27;45512;-73
2022/08/23 12:20:09;;;;;;;;;0.00;0.00;;;;;;;;5094231;27;45339;-73
2022/08/23 12:22:56;;;;;;;;;0.00;0.00;;;;;;;;5096735;27;46292;-73
2022/08/23 12:25:22;;;;;;;;;0.00;0.00;;;;;;;;5087036;27;45351;-73
2022/08/23 12:27:51;;;;;;;;;0.00;0.00;;;;;;;;5096808;27;45470;-73
2022/08/23 12:30:19;;;;;;;;;1.00;1.00;;;;;;;;5087073;27;45212;-73
2022/08/23 12:33:03;;;;;;;;;1.00;0.00;;;;;;;;5076754;27;45976;-73
2022/08/23 12:35:48;;;;;;;;;0.00;0.00;;;;;;;;5092048;27;45435;-73
2022/08/23 12:38:13;;;;;;;;;0.00;0.00;;;;;;;;5096637;27;45213;-73
2022/08/23 12:40:43;;;;;;;;;0.00;0.00;;;;;;;;5086157;27;45361;-73
2022/08/23 12:43:19;;;;;;;;;0.00;0.00;;;;;;;;5092229;27;46115;-73
2022/08/23 12:45:47;;;;;;;;;0.00;0.00;;;;;;;;5088212;27;45348;-73
2022/08/23 12:48:13;;;;;;;;;0.00;0.00;;;;;;;;5094481;27;45532;-73
2022/08/23 12:50:43;;;;;;;;;0.00;0.00;;;;;;;;5086414;27;45363;-73
2022/08/23 12:53:11;;;;;;;;;0.67;0.67;;;;;;;;5092294;27;46210;-73
2022/08/23 12:55:38;;;;;;;;;0.00;0.00;;;;;;;;5089794;27;45420;-73
2022/08/23 12:58:05;;;;;;;;;0.33;0.33;;;;;;;;5093178;27;45511;-73
2022/08/23 13:00:33;;;;;;;;;1.00;1.00;;;;;;;;5091007;27;45412;-73
2022/08/23 13:03:04;;;;;;;;;0.00;0.00;;;;;;;;5086197;27;46932;-73
2022/08/23 13:05:35;;;;;;;;;0.00;0.00;;;;;;;;5095443;27;45481;-73
2022/08/23 13:08:02;;;;;;;;;0.00;0.00;;;;;;;;5089863;27;45335;-73
2022/08/23 13:10:28;;;;;;;;;0.00;0.00;;;;;;;;5091120;27;45421;-73
2022/08/23 13:12:53;;;;;;;;;1.33;0.67;;;;;;;;5096592;27;46196;-73
2022/08/23 13:15:37;;;;;;;;;0.00;0.00;;;;;;;;5086139;27;45365;-73
2022/08/23 13:18:02;;;;;;;;;0.00;0.00;;;;;;;;5070345;27;45305;-72
2022/08/23 13:20:28;;;;;;;;;0.00;0.00;;;;;;;;5091793;27;45354;-73
2022/08/23 13:23:16;;;;;;;;;0.00;0.00;;;;;;;;5082270;27;47057;-73
2022/08/23 13:25:41;;;;;;;;;0.00;0.00;;;;;;;;5081613;27;45548;-73
2022/08/23 13:28:20;;;;;;;;;0.00;0.00;;;;;;;;5068090;27;45568;-73
2022/08/23 13:30:56;;;;;;;;;0.00;0.00;;;;;;;;5063363;28;45307;-72
2022/08/23 13:33:21;;;;;;;;;0.00;0.00;;;;;;;;5070466;27;46304;-73
2022/08/23 13:35:48;;;;;;;;;0.00;0.00;;;;;;;;5087601;27;45476;-73
2022/08/23 13:38:16;;;;;;;;;0.00;0.00;;;;;;;;5095928;27;45370;-73
2022/08/23 13:40:52;;;;;;;;;0.00;0.00;;;;;;;;5085004;27;45477;-73
2022/08/23 13:43:20;;;;;;;;;0.00;0.00;;;;;;;;5080599;27;46501;-73
2022/08/23 13:45:47;;;;;;;;;0.00;0.00;;;;;;;;5082254;27;45530;-73
2022/08/23 13:48:14;;;;;;;;;0.00;0.00;;;;;;;;5087247;27;45284;-73
2022/08/23 13:50:40;;;;;;;;;0.00;0.00;;;;;;;;5096594;27;45427;-73
2022/08/23 13:53:06;;;;;;;;;1.00;1.00;;;;;;;;5096094;27;47210;-73
2022/08/23 13:55:33;;;;;;;;;0.00;0.00;;;;;;;;5096415;27;45838;-73
2022/08/23 13:57:58;;;;;;;;;0.00;0.00;;;;;;;;5096664;27;45410;-73
2022/08/23 14:00:24;;;;;;;;;0.00;0.00;;;;;;;;5095592;27;45300;-73
2022/08/23 14:02:50;;;;;;;;;0.00;0.00;;;;;;;;5085398;27;46532;-73
2022/08/23 14:05:17;;;;;;;;;0.00;0.00;;;;;;;;5097102;27;45517;-73
2022/08/23 14:07:42;;;;;;;;;0.00;0.00;;;;;;;;5091561;27;45441;-73
2022/08/23 14:10:08;;;;;;;;;0.00;0.00;;;;;;;;5091627;27;45292;-73
2022/08/23 14:12:34;;;;;;;;;0.00;0.00;;;;;;;;5099250;27;46296;-73
2022/08/23 14:15:00;;;;;;;;;0.00;0.00;;;;;;;;5081678;27;45391;-73
2022/08/23 14:17:26;;;;;;;;;0.00;0.00;;;;;;;;5095290;27;45514;-73
2022/08/23 14:19:51;;;;;;;;;0.00;0.00;;;;;;;;5093841;27;45434;-73
2022/08/23 14:22:17;;;;;;;;;0.00;0.00;;;;;;;;5085994;27;45327;-73
2022/08/23 14:24:42;;;;;;;;;0.00;0.00;;;;;;;;5099479;27;45338;-73
2022/08/23 14:27:08;;;;;;;;;0.00;0.00;;;;;;;;5099691;27;45386;-73
2022/08/23 14:29:33;;;;;;;;;0.00;0.00;;;;;;;;5085595;27;45383;-72
2022/08/23 14:31:59;;;;;;;;;0.00;0.00;;;;;;;;5089443;27;47077;-73
2022/08/23 14:34:25;;;;;;;;;1.00;0.00;;;;;;;;5094983;27;45491;-73
2022/08/23 14:36:51;;;;;;;;;0.00;0.00;;;;;;;;5090812;27;45383;-73
2022/08/23 14:39:16;;;;;;;;;0.00;0.00;;;;;;;;5099383;27;45542;-73
2022/08/23 14:41:41;;;;;;;;;0.00;0.00;;;;;;;;5080637;27;46132;-73
2022/08/23 14:44:07;;;;;;;;;0.00;0.00;;;;;;;;5098996;27;45357;-73
2022/08/23 14:46:32;;;;;;;;;0.00;0.00;;;;;;;;5096625;27;45347;-72
2022/08/23 14:48:57;;;;;;;;;1.00;0.00;;;;;;;;5092357;27;45469;-73
2022/08/23 14:51:28;;;;;;;;;0.00;0.00;;;;;;;;5094540;27;46127;-73
2022/08/23 14:53:53;;;;;;;;;0.00;0.00;;;;;;;;5098470;27;45323;-73
2022/08/23 14:56:19;;;;;;;;;0.00;0.00;;;;;;;;5083360;27;45713;-73
2022/08/23 14:58:44;;;;;;;;;0.00;0.00;;;;;;;;5087995;27;45403;-73
2022/08/23 15:01:10;;;;;;;;;0.00;0.00;;;;;;;;5094365;27;46275;-73